LiveATC.Net - Listen to live air traffic control over the Internet!


ICAO: KJFX  IATA: JFX   Airport: Walker County Airport-Bevill Field
City: Jasper   State/Province: Alabama
Country: United States   Continent: North America
KJFX METAR Weather: KJFX 170155Z AUTO 00000KT 10SM CLR 10/09 A3025 RMK AO2 PWINO
KJFX Flight Activity (FlightAware)
KJFX Airport Info   (AirNav) (iFlightPlanner)
KJFX VFR Sectional Chart   (iFlightPlanner) 
KJFX IFR Low Chart   (iFlightPlanner) 
KJFX CTAF
Feed Status: UP   Listeners: 0
Listen right in your browser - requires Flash (in browser, requires Flash)
Click here to listen with your own player (launches your MP3 player)
KJFX CTAF Audio Archives
FacilityFrequency
Walker County CTAF122.700


NOTICE

Unauthorized use prohibited. See LiveATC.net Terms of Service


Find LiveATC Audio Streams


Airport/ARTCC Code

Frequency Search
(e.g., 124.400, 128.75)
Site-wide search
 


Browse LiveATC Feeds
LiveATC Coverage Map
Top 50 LiveATC Feeds
Bad Weather Areas

LiveATC FAQ
Offer a LiveATC Feed
Contact LiveATC.net
Press Inquiries

LiveATC on iPhone
LiveATC on Android

Windows Phone
Windows 8/10

LiveATC Mobile
(Mobile browser)

ATC Audio Archives
Interesting Recordings

LiveATC Forums


Home Page
About LiveATC.net
Make a Donation
LiveATC Store

Terms of Use
Privacy Policy

Canadian Air Freqs

AIRMETs/SIGMETs

FAA Airport Status
Nat'l Airspace Status
Arrival Demand Charts


Server Software By:
Icecast.org
Liquidsoap